Time;durP1;ratioP1;P1;durP2;ratioP2;P2;SDS_P1;SDS_P2;PMS_P1;PMS_P2;Temp;Humidity;BMP_temperature;BMP_pressure;BME280_temperature;BME280_humidity;BME280_pressure;Samples;Min_cycle;Max_cycle;Signal;HPM_P1;HPM_P2
2023/07/21 00:03:51;;;;;;;4.32;2.10;;;;;;;;;;10544625;28;20063;-73
2023/07/21 00:08:55;;;;;;;5.78;2.25;;;;;;;;;;10559776;27;20039;-74
2023/07/21 00:13:58;;;;;;;4.70;2.13;;;;;;;;;;10556737;27;20048;-74
2023/07/21 00:19:01;;;;;;;6.00;1.70;;;;;;;;;;10558189;27;20077;-75
2023/07/21 00:24:06;;;;;;;3.72;1.92;;;;;;;;;;10550244;28;20450;-75
2023/07/21 00:29:09;;;;;;;3.85;2.03;;;;;;;;;;10559033;27;20047;-74
2023/07/21 00:34:14;;;;;;;7.97;1.80;;;;;;;;;;10558955;28;20054;-75
2023/07/21 00:39:19;;;;;;;5.75;1.75;;;;;;;;;;10537603;28;20135;-74
2023/07/21 00:44:22;;;;;;;3.10;1.90;;;;;;;;;;10558574;28;20448;-74
2023/07/21 00:49:24;;;;;;;3.80;2.10;;;;;;;;;;10558083;28;20097;-74
2023/07/21 00:54:29;;;;;;;5.85;1.98;;;;;;;;;;10560897;28;20182;-73
2023/07/21 00:59:32;;;;;;;5.80;1.98;;;;;;;;;;10569185;27;20039;-74
2023/07/21 01:04:35;;;;;;;6.72;3.47;;;;;;;;;;10567518;27;20035;-74
2023/07/21 01:09:39;;;;;;;4.72;2.25;;;;;;;;;;10560293;27;20052;-74
2023/07/21 01:14:42;;;;;;;5.75;2.20;;;;;;;;;;10551286;27;20122;-74
2023/07/21 01:19:48;;;;;;;5.50;1.70;;;;;;;;;;10562017;27;20029;-74
2023/07/21 01:25:15;;;;;;;4.10;1.92;;;;;;;;;;10565495;27;20111;-74
2023/07/21 01:30:20;;;;;;;5.00;2.45;;;;;;;;;;10565143;27;20115;-74
2023/07/21 01:35:24;;;;;;;6.38;2.45;;;;;;;;;;10559611;28;20047;-73
2023/07/21 01:40:27;;;;;;;6.80;2.30;;;;;;;;;;10568078;27;20042;-74
2023/07/21 01:45:32;;;;;;;6.38;2.40;;;;;;;;;;10560905;27;20059;-74
2023/07/21 01:50:39;;;;;;;6.38;2.97;;;;;;;;;;10551712;27;20036;-75
2023/07/21 01:55:43;;;;;;;5.05;2.78;;;;;;;;;;10558613;27;20047;-74
2023/07/21 02:00:48;;;;;;;5.40;2.70;;;;;;;;;;10563399;27;20039;-74
2023/07/21 02:05:53;;;;;;;7.38;3.22;;;;;;;;;;10560148;28;20035;-75
2023/07/21 02:10:56;;;;;;;6.50;3.33;;;;;;;;;;10560915;28;20040;-74
2023/07/21 02:16:00;;;;;;;6.65;2.95;;;;;;;;;;10559034;28;20119;-74
2023/07/21 02:21:03;;;;;;;6.47;2.70;;;;;;;;;;10562664;28;20043;-74
2023/07/21 02:26:06;;;;;;;6.20;3.15;;;;;;;;;;10559873;28;20053;-74
2023/07/21 02:31:11;;;;;;;6.80;3.33;;;;;;;;;;10563670;27;20499;-74
2023/07/21 02:36:14;;;;;;;7.15;3.22;;;;;;;;;;10562458;28;20122;-74
2023/07/21 02:41:17;;;;;;;7.82;3.25;;;;;;;;;;10567118;27;20528;-74
2023/07/21 02:46:21;;;;;;;6.15;2.95;;;;;;;;;;10564494;27;20057;-74
2023/07/21 02:51:24;;;;;;;7.68;3.05;;;;;;;;;;10567142;27;20050;-73
2023/07/21 02:56:27;;;;;;;11.43;3.25;;;;;;;;;;10563689;27;20043;-73
2023/07/21 03:01:32;;;;;;;7.25;3.20;;;;;;;;;;10558739;27;20075;-74
2023/07/21 03:06:36;;;;;;;7.65;3.20;;;;;;;;;;10561742;27;20101;-74
2023/07/21 03:11:38;;;;;;;6.28;3.00;;;;;;;;;;10559211;27;20400;-73
2023/07/21 03:16:43;;;;;;;8.23;2.95;;;;;;;;;;10564090;27;20066;-72
2023/07/21 03:21:46;;;;;;;6.80;2.85;;;;;;;;;;10554672;28;20032;-73
2023/07/21 03:26:49;;;;;;;6.13;2.80;;;;;;;;;;10554988;28;20066;-72
2023/07/21 03:31:53;;;;;;;4.95;2.53;;;;;;;;;;10560922;28;20434;-72
2023/07/21 03:36:56;;;;;;;7.45;3.13;;;;;;;;;;10559312;27;20043;-73
2023/07/21 03:41:59;;;;;;;8.35;2.55;;;;;;;;;;10565657;27;20117;-73
2023/07/21 03:47:03;;;;;;;8.07;2.60;;;;;;;;;;10560720;27;20048;-74
2023/07/21 03:52:07;;;;;;;7.15;2.78;;;;;;;;;;10562373;28;20521;-73
2023/07/21 03:57:10;;;;;;;;;;;;;;;;;;10557618;27;20054;-74
2023/07/21 04:02:16;;;;;;;6.43;2.50;;;;;;;;;;10555124;28;19920;-73
2023/07/21 04:07:21;;;;;;;6.13;2.65;;;;;;;;;;10555952;28;20074;-74
2023/07/21 04:12:24;;;;;;;6.15;2.17;;;;;;;;;;10564828;28;20039;-73
2023/07/21 04:17:28;;;;;;;4.88;2.40;;;;;;;;;;10560957;28;20047;-73
2023/07/21 04:22:32;;;;;;;4.35;2.83;;;;;;;;;;10560376;28;20059;-74
2023/07/21 04:27:35;;;;;;;8.02;2.70;;;;;;;;;;10553488;28;20119;-73
2023/07/21 04:32:40;;;;;;;5.65;2.88;;;;;;;;;;10559302;28;20092;-77
2023/07/21 04:37:42;;;;;;;7.28;3.05;;;;;;;;;;10561890;28;20042;-77
2023/07/21 04:42:46;;;;;;;5.57;2.70;;;;;;;;;;10566366;28;20046;-77
2023/07/21 04:47:53;;;;;;;6.28;3.05;;;;;;;;;;10555340;28;20040;-76
2023/07/21 04:52:56;;;;;;;5.60;2.70;;;;;;;;;;10562565;28;20040;-77
2023/07/21 04:58:01;;;;;;;9.18;3.00;;;;;;;;;;10545614;28;20500;-77
2023/07/21 05:03:05;;;;;;;5.75;2.72;;;;;;;;;;10568134;28;20035;-77
2023/07/21 05:08:09;;;;;;;11.13;4.43;;;;;;;;;;10558723;28;20051;-77
2023/07/21 05:13:11;;;;;;;7.70;3.17;;;;;;;;;;10561433;28;20150;-78
2023/07/21 05:18:15;;;;;;;8.77;3.50;;;;;;;;;;10555776;28;20048;-78
2023/07/21 05:23:19;;;;;;;5.15;3.00;;;;;;;;;;10535155;28;20042;-77
2023/07/21 05:28:23;;;;;;;6.43;3.38;;;;;;;;;;10562222;28;20464;-76
2023/07/21 05:33:27;;;;;;;7.50;3.42;;;;;;;;;;10521920;28;20406;-78
2023/07/21 05:38:32;;;;;;;5.85;2.97;;;;;;;;;;10544812;28;20073;-77
2023/07/21 05:43:35;;;;;;;7.75;3.20;;;;;;;;;;10560410;27;20136;-77
2023/07/21 05:48:39;;;;;;;8.25;3.38;;;;;;;;;;10567613;28;20551;-77
2023/07/21 05:53:42;;;;;;;6.90;3.00;;;;;;;;;;10574025;27;20035;-76
2023/07/21 05:58:45;;;;;;;5.57;3.03;;;;;;;;;;10561697;28;20051;-77
2023/07/21 06:03:49;;;;;;;6.32;3.17;;;;;;;;;;10564717;27;20036;-77
2023/07/21 06:08:54;;;;;;;6.88;3.28;;;;;;;;;;10566843;27;20073;-76
2023/07/21 06:13:57;;;;;;;5.90;3.33;;;;;;;;;;10568902;27;20032;-78
2023/07/21 06:19:01;;;;;;;8.02;3.42;;;;;;;;;;10558846;28;20186;-78
2023/07/21 06:24:05;;;;;;;10.30;3.53;;;;;;;;;;10564527;27;20128;-77
2023/07/21 06:29:09;;;;;;;8.23;3.40;;;;;;;;;;10564767;27;20488;-77
2023/07/21 06:34:13;;;;;;;6.88;3.78;;;;;;;;;;10562881;28;20166;-75
2023/07/21 06:39:16;;;;;;;6.45;3.60;;;;;;;;;;10565427;28;20044;-77
2023/07/21 06:44:20;;;;;;;;;;;;;;;;;;10562618;27;20046;-77
2023/07/21 06:49:27;;;;;;;8.15;4.20;;;;;;;;;;10564749;27;19932;-76
2023/07/21 06:54:46;;;;;;;7.63;3.67;;;;;;;;;;10563788;27;20043;-78
2023/07/21 06:59:48;;;;;;;5.47;3.22;;;;;;;;;;10565105;27;20146;-75
2023/07/21 07:04:54;;;;;;;7.85;3.45;;;;;;;;;;10561887;27;20054;-75
2023/07/21 07:09:57;;;;;;;6.07;2.83;;;;;;;;;;10550926;27;20108;-76
2023/07/21 07:14:59;;;;;;;6.53;3.17;;;;;;;;;;10554161;27;20115;-76
2023/07/21 07:20:06;;;;;;;12.30;3.30;;;;;;;;;;10546571;27;20476;-74
2023/07/21 07:25:10;;;;;;;9.00;3.65;;;;;;;;;;10552178;27;21180;-76
2023/07/21 07:30:12;;;;;;;;;;;;;;;;;;10556342;27;20054;-76
2023/07/21 07:35:17;;;;;;;6.63;3.25;;;;;;;;;;10559026;27;19929;-77
2023/07/21 07:40:20;;;;;;;6.93;3.53;;;;;;;;;;10556802;27;20039;-76
2023/07/21 07:45:22;;;;;;;5.22;2.72;;;;;;;;;;10556384;28;20039;-77
2023/07/21 07:50:27;;;;;;;6.53;3.60;;;;;;;;;;10575155;27;20035;-76
2023/07/21 07:55:29;;;;;;;6.05;3.40;;;;;;;;;;10560559;27;20043;-75
2023/07/21 08:00:35;;;;;;;10.45;3.50;;;;;;;;;;10557206;27;20036;-76
2023/07/21 08:05:40;;;;;;;7.53;3.22;;;;;;;;;;10555999;27;20035;-76
2023/07/21 08:10:42;;;;;;;7.80;3.50;;;;;;;;;;10556360;27;20047;-77
2023/07/21 08:15:46;;;;;;;6.60;3.10;;;;;;;;;;10555533;28;20212;-77
2023/07/21 08:20:50;;;;;;;7.28;3.40;;;;;;;;;;10552641;27;20035;-76
2023/07/21 08:25:53;;;;;;;6.85;3.17;;;;;;;;;;10549712;28;20107;-76
2023/07/21 08:30:55;;;;;;;9.73;3.35;;;;;;;;;;10553947;27;20043;-76
2023/07/21 08:36:02;;;;;;;6.32;3.15;;;;;;;;;;10562769;27;20085;-75
2023/07/21 08:41:06;;;;;;;7.43;3.10;;;;;;;;;;10537990;28;20089;-77
2023/07/21 08:46:09;;;;;;;5.75;3.15;;;;;;;;;;10563283;28;20699;-76
2023/07/21 08:51:13;;;;;;;7.38;3.28;;;;;;;;;;10556647;28;20060;-76
2023/07/21 08:56:17;;;;;;;3.50;2.30;;;;;;;;;;10546208;28;20128;-76
2023/07/21 09:01:20;;;;;;;5.72;2.40;;;;;;;;;;10551269;28;20421;-76
2023/07/21 09:06:24;;;;;;;4.88;3.05;;;;;;;;;;10557797;27;20436;-76
2023/07/21 09:11:27;;;;;;;7.38;3.10;;;;;;;;;;10553243;28;20035;-77
2023/07/21 09:16:33;;;;;;;4.47;3.30;;;;;;;;;;10561735;27;20047;-76
2023/07/21 09:21:37;;;;;;;5.88;3.17;;;;;;;;;;10569228;27;20051;-76
2023/07/21 09:26:40;;;;;;;6.30;2.75;;;;;;;;;;10564615;27;20115;-75
2023/07/21 09:31:44;;;;;;;7.78;3.30;;;;;;;;;;10550356;28;20036;-76
2023/07/21 09:36:48;;;;;;;4.38;2.80;;;;;;;;;;10563589;27;20059;-76
2023/07/21 09:41:52;;;;;;;4.15;2.20;;;;;;;;;;10570971;27;20039;-75
2023/07/21 09:46:54;;;;;;;5.18;3.03;;;;;;;;;;10557750;28;20575;-76
2023/07/21 09:51:59;;;;;;;5.00;2.58;;;;;;;;;;10560384;27;20088;-76
2023/07/21 09:57:03;;;;;;;6.63;2.80;;;;;;;;;;10562538;28;20039;-76
2023/07/21 10:02:07;;;;;;;5.22;2.50;;;;;;;;;;10568101;27;20040;-76
2023/07/21 10:07:12;;;;;;;5.57;2.53;;;;;;;;;;10560844;27;20123;-75
2023/07/21 10:12:15;;;;;;;4.18;2.40;;;;;;;;;;10562178;27;20605;-76
2023/07/21 10:17:23;;;;;;;6.72;2.22;;;;;;;;;;10565452;27;20039;-76
2023/07/21 10:22:27;;;;;;;2.40;1.80;;;;;;;;;;10563827;27;20073;-76
2023/07/21 10:27:30;;;;;;;6.45;3.15;;;;;;;;;;10565749;27;20039;-76
2023/07/21 10:32:41;;;;;;;4.00;2.90;;;;;;;;;;10548065;28;20185;-76
2023/07/21 10:38:02;;;;;;;4.13;2.05;;;;;;;;;;10558415;28;20035;-76
2023/07/21 10:43:05;;;;;;;3.58;2.45;;;;;;;;;;10554417;27;20123;-76
2023/07/21 10:48:11;;;;;;;3.10;1.88;;;;;;;;;;10555636;27;20441;-76
2023/07/21 10:53:16;;;;;;;4.20;2.60;;;;;;;;;;10558877;27;20048;-76
2023/07/21 10:58:19;;;;;;;3.60;2.63;;;;;;;;;;10558723;27;20093;-76
2023/07/21 11:03:21;;;;;;;4.25;2.72;;;;;;;;;;10560898;27;20044;-76
2023/07/21 11:08:29;;;;;;;2.50;1.77;;;;;;;;;;10559842;27;20096;-76
2023/07/21 11:13:32;;;;;;;5.28;2.83;;;;;;;;;;10567322;27;20036;-76
2023/07/21 11:18:34;;;;;;;3.00;2.17;;;;;;;;;;10562346;27;20075;-75
2023/07/21 11:23:39;;;;;;;3.60;2.30;;;;;;;;;;10556439;28;20043;-78
2023/07/21 11:28:43;;;;;;;4.00;2.80;;;;;;;;;;10556905;28;20067;-76
2023/07/21 11:33:47;;;;;;;4.00;2.50;;;;;;;;;;10558454;28;20035;-77
2023/07/21 11:38:59;;;;;;;4.65;2.78;;;;;;;;;;10556387;28;20051;-76
2023/07/21 11:44:03;;;;;;;5.50;2.40;;;;;;;;;;10556093;28;20104;-76
2023/07/21 11:49:10;;;;;;;5.47;2.90;;;;;;;;;;10553705;28;20040;-76
2023/07/21 11:54:23;;;;;;;2.78;2.42;;;;;;;;;;10560661;27;20114;-78
2023/07/21 11:59:26;;;;;;;4.18;2.90;;;;;;;;;;10555496;27;20048;-77
2023/07/21 12:04:28;;;;;;;6.80;3.40;;;;;;;;;;10558379;27;20039;-77
2023/07/21 12:09:33;;;;;;;3.92;2.70;;;;;;;;;;10563993;28;20043;-77
2023/07/21 12:14:35;;;;;;;5.70;2.67;;;;;;;;;;10559326;28;20083;-76
2023/07/21 12:19:38;;;;;;;6.97;3.35;;;;;;;;;;10556463;27;20036;-76
2023/07/21 12:24:42;;;;;;;8.45;2.88;;;;;;;;;;10554032;28;20063;-77
2023/07/21 12:29:45;;;;;;;7.47;3.10;;;;;;;;;;10538383;28;20138;-76
2023/07/21 12:34:48;;;;;;;10.75;3.70;;;;;;;;;;10556563;27;20062;-76
2023/07/21 12:39:54;;;;;;;7.68;3.70;;;;;;;;;;10553383;27;20134;-76
2023/07/21 12:44:57;;;;;;;6.72;3.58;;;;;;;;;;10559718;28;20044;-77
2023/07/21 12:50:00;;;;;;;8.45;3.65;;;;;;;;;;10558530;28;20100;-77
2023/07/21 12:55:05;;;;;;;8.63;3.38;;;;;;;;;;10560874;28;20058;-75
2023/07/21 13:00:11;;;;;;;6.88;3.17;;;;;;;;;;10566933;28;20044;-76
2023/07/21 13:05:14;;;;;;;8.07;3.60;;;;;;;;;;10559151;28;20127;-75
2023/07/21 13:10:16;;;;;;;;;;;;;;;;;;10554759;28;20508;-77
2023/07/21 13:15:20;;;;;;;4.32;2.35;;;;;;;;;;10555615;28;19926;-76
2023/07/21 13:20:24;;;;;;;4.38;2.55;;;;;;;;;;10553098;28;20502;-73
2023/07/21 13:25:26;;;;;;;5.75;3.00;;;;;;;;;;10556112;28;20062;-72
2023/07/21 13:30:30;;;;;;;4.47;2.50;;;;;;;;;;10556409;28;20043;-73
2023/07/21 13:35:33;;;;;;;5.03;2.85;;;;;;;;;;10554963;28;20123;-72
2023/07/21 13:40:36;;;;;;;4.22;2.00;;;;;;;;;;10560455;28;20156;-74
2023/07/21 13:45:40;;;;;;;3.95;2.40;;;;;;;;;;10552934;28;21728;-72
2023/07/21 13:50:42;;;;;;;4.13;1.90;;;;;;;;;;10557641;28;20058;-73
2023/07/21 13:55:46;;;;;;;5.57;2.80;;;;;;;;;;10555367;28;20139;-73
2023/07/21 14:00:50;;;;;;;3.90;1.67;;;;;;;;;;10564533;27;20048;-74
2023/07/21 14:05:53;;;;;;;4.93;2.58;;;;;;;;;;10557821;27;20089;-73
2023/07/21 14:10:56;;;;;;;3.90;2.13;;;;;;;;;;10567211;27;20492;-74
2023/07/21 14:16:01;;;;;;;1.60;1.15;;;;;;;;;;10564706;27;20043;-74
2023/07/21 14:21:04;;;;;;;3.88;2.22;;;;;;;;;;10551382;27;20043;-74
2023/07/21 14:26:07;;;;;;;4.22;2.28;;;;;;;;;;10565169;28;20127;-75
2023/07/21 14:31:11;;;;;;;4.63;2.38;;;;;;;;;;10565193;27;20454;-75
2023/07/21 14:36:15;;;;;;;6.20;2.58;;;;;;;;;;10551944;27;20230;-75
2023/07/21 14:41:23;;;;;;;3.65;1.83;;;;;;;;;;10564918;27;20070;-76
2023/07/21 14:46:27;;;;;;;3.60;1.38;;;;;;;;;;10572657;27;20119;-77
2023/07/21 14:51:31;;;;;;;3.35;2.03;;;;;;;;;;10581589;27;20047;-87
2023/07/21 14:56:36;;;;;;;5.07;2.60;;;;;;;;;;10558772;27;20152;-84
2023/07/21 15:01:40;;;;;;;10.73;3.60;;;;;;;;;;10582837;27;20039;-85
2023/07/21 15:06:43;;;;;;;10.23;3.70;;;;;;;;;;10614288;27;20042;-83
2023/07/21 15:11:46;;;;;;;8.65;3.60;;;;;;;;;;10584899;28;20047;-85
2023/07/21 15:16:51;;;;;;;10.87;4.10;;;;;;;;;;10578660;28;20058;-85
2023/07/21 15:21:54;;;;;;;7.68;3.45;;;;;;;;;;10573451;27;20615;-85
2023/07/21 15:27:01;;;;;;;8.25;3.70;;;;;;;;;;10583150;27;20047;-83
2023/07/21 15:32:05;;;;;;;6.28;3.10;;;;;;;;;;10573513;27;20075;-84
2023/07/21 15:37:08;;;;;;;5.47;3.05;;;;;;;;;;10592785;27;20050;-84
2023/07/21 15:42:11;;;;;;;5.47;2.75;;;;;;;;;;10585450;27;20108;-83
2023/07/21 15:47:15;;;;;;;4.32;2.40;;;;;;;;;;10585478;27;20023;-83
2023/07/21 15:52:18;;;;;;;6.72;3.03;;;;;;;;;;10564795;27;20443;-82
2023/07/21 15:57:21;;;;;;;5.45;2.72;;;;;;;;;;10583209;27;20046;-81
2023/07/21 16:02:25;;;;;;;7.87;3.33;;;;;;;;;;10578615;27;20233;-81
2023/07/21 16:07:27;;;;;;;7.20;2.83;;;;;;;;;;10576780;27;20226;-82
2023/07/21 16:12:30;;;;;;;5.30;2.47;;;;;;;;;;10580000;27;20082;-80
2023/07/21 16:17:34;;;;;;;4.55;2.58;;;;;;;;;;10575509;27;20115;-82
2023/07/21 16:22:37;;;;;;;4.93;2.40;;;;;;;;;;10583023;27;20461;-81
2023/07/21 16:27:43;;;;;;;2.97;1.58;;;;;;;;;;10568679;28;20046;-82
2023/07/21 16:32:47;;;;;;;5.50;2.40;;;;;;;;;;10574191;27;20548;-81
2023/07/21 16:37:50;;;;;;;8.05;2.95;;;;;;;;;;10563879;27;20155;-81
2023/07/21 16:42:53;;;;;;;9.03;3.90;;;;;;;;;;10570465;27;20044;-76
2023/07/21 16:47:57;;;;;;;6.93;2.47;;;;;;;;;;10568297;28;20043;-75
2023/07/21 16:53:00;;;;;;;8.48;3.47;;;;;;;;;;10566373;28;20082;-76
2023/07/21 16:58:03;;;;;;;8.57;3.10;;;;;;;;;;10568005;28;20510;-73
2023/07/21 17:03:07;;;;;;;3.95;2.50;;;;;;;;;;10563978;28;20118;-76
2023/07/21 17:08:10;;;;;;;6.22;2.80;;;;;;;;;;10567471;28;20055;-76
2023/07/21 17:13:13;;;;;;;4.60;1.80;;;;;;;;;;10563790;28;20568;-76
2023/07/21 17:18:18;;;;;;;6.20;2.72;;;;;;;;;;10567015;28;20122;-76
2023/07/21 17:23:21;;;;;;;5.35;2.40;;;;;;;;;;10562424;28;20040;-75
2023/07/21 17:28:23;;;;;;;5.90;3.00;;;;;;;;;;10560794;28;20145;-76
2023/07/21 17:33:28;;;;;;;2.60;1.75;;;;;;;;;;10556936;28;20482;-74
2023/07/21 17:38:31;;;;;;;6.43;2.97;;;;;;;;;;10569673;27;20051;-75
2023/07/21 17:43:34;;;;;;;5.25;2.60;;;;;;;;;;10559073;28;20509;-75
2023/07/21 17:48:38;;;;;;;2.70;1.50;;;;;;;;;;10568653;27;20569;-75
2023/07/21 17:53:41;;;;;;;8.07;3.28;;;;;;;;;;10566289;27;20044;-77
2023/07/21 17:58:44;;;;;;;7.80;2.77;;;;;;;;;;10569837;28;20043;-76
2023/07/21 18:03:49;;;;;;;5.97;2.63;;;;;;;;;;10549991;28;20045;-76
2023/07/21 18:08:52;;;;;;;6.28;2.70;;;;;;;;;;10569823;28;20139;-75
2023/07/21 18:13:55;;;;;;;3.35;1.85;;;;;;;;;;10572333;28;20666;-76
2023/07/21 18:18:59;;;;;;;6.03;2.38;;;;;;;;;;10562335;27;20416;-74
2023/07/21 18:24:02;;;;;;;3.97;2.20;;;;;;;;;;10561275;28;20125;-75
2023/07/21 18:29:04;;;;;;;5.37;2.30;;;;;;;;;;10565609;28;20126;-75
2023/07/21 18:34:08;;;;;;;5.37;2.20;;;;;;;;;;10558183;28;20097;-75
2023/07/21 18:39:11;;;;;;;4.80;2.05;;;;;;;;;;10560528;27;20058;-75
2023/07/21 18:44:15;;;;;;;4.17;1.97;;;;;;;;;;10565113;27;20154;-75
2023/07/21 18:49:19;;;;;;;6.22;2.42;;;;;;;;;;10541799;27;20457;-75
2023/07/21 18:54:25;;;;;;;5.93;2.92;;;;;;;;;;10563472;27;20067;-74
2023/07/21 18:59:28;;;;;;;5.28;2.40;;;;;;;;;;10560791;28;20071;-75
2023/07/21 19:04:32;;;;;;;3.57;2.30;;;;;;;;;;10555596;28;20040;-76
2023/07/21 19:09:35;;;;;;;5.57;2.70;;;;;;;;;;10557304;27;20042;-75
2023/07/21 19:14:37;;;;;;;5.73;2.83;;;;;;;;;;10560455;27;20615;-75
2023/07/21 19:19:44;;;;;;;2.93;1.77;;;;;;;;;;10570328;28;20075;-75
2023/07/21 19:24:47;;;;;;;4.93;2.60;;;;;;;;;;10562685;28;20067;-75
2023/07/21 19:29:50;;;;;;;6.32;2.90;;;;;;;;;;10567650;28;20180;-74
2023/07/21 19:34:54;;;;;;;7.13;2.58;;;;;;;;;;10567698;28;20043;-76
2023/07/21 19:39:56;;;;;;;5.65;2.88;;;;;;;;;;10548223;27;20485;-75
2023/07/21 19:44:59;;;;;;;6.33;2.70;;;;;;;;;;10573046;27;20198;-75
2023/07/21 19:50:03;;;;;;;5.00;2.40;;;;;;;;;;10575737;27;20135;-76
2023/07/21 19:55:06;;;;;;;7.57;3.13;;;;;;;;;;10550273;28;20116;-74
2023/07/21 20:00:10;;;;;;;5.57;2.92;;;;;;;;;;10569482;27;20039;-75
2023/07/21 20:05:15;;;;;;;9.38;2.90;;;;;;;;;;10560802;27;20199;-75
2023/07/21 20:10:17;;;;;;;5.32;2.55;;;;;;;;;;10561233;27;20475;-75
2023/07/21 20:15:20;;;;;;;5.93;2.80;;;;;;;;;;10564449;27;20050;-74
2023/07/21 20:20:24;;;;;;;6.90;2.60;;;;;;;;;;10559245;28;20044;-74
2023/07/21 20:25:26;;;;;;;7.68;2.70;;;;;;;;;;10561934;28;20473;-74
2023/07/21 20:30:29;;;;;;;7.88;2.80;;;;;;;;;;10564426;27;20435;-74
2023/07/21 20:35:34;;;;;;;6.25;2.25;;;;;;;;;;10567467;28;20066;-75
2023/07/21 20:40:37;;;;;;;5.55;2.60;;;;;;;;;;10566299;28;20051;-75
2023/07/21 20:45:40;;;;;;;3.90;2.33;;;;;;;;;;10566063;28;20055;-75
2023/07/21 20:50:44;;;;;;;5.45;2.50;;;;;;;;;;10568569;28;20070;-75
2023/07/21 20:55:50;;;;;;;5.13;2.83;;;;;;;;;;10566161;28;20419;-75
2023/07/21 21:00:53;;;;;;;6.53;2.95;;;;;;;;;;10548078;28;20221;-75
2023/07/21 21:05:56;;;;;;;;;;;;;;;;;;10552613;28;20176;-76
2023/07/21 21:11:01;;;;;;;4.80;2.03;;;;;;;;;;10567211;27;19938;-77
2023/07/21 21:16:03;;;;;;;6.28;2.05;;;;;;;;;;10568639;27;20124;-78
2023/07/21 21:21:06;;;;;;;3.23;1.77;;;;;;;;;;10568856;27;20036;-77
2023/07/21 21:26:12;;;;;;;5.78;2.17;;;;;;;;;;10573813;27;20131;-77
2023/07/21 21:31:15;;;;;;;5.97;2.45;;;;;;;;;;10572799;27;20046;-78
2023/07/21 21:36:18;;;;;;;2.92;2.00;;;;;;;;;;10557300;27;20028;-77
2023/07/21 21:41:22;;;;;;;5.17;2.20;;;;;;;;;;10567633;28;20050;-77
2023/07/21 21:46:25;;;;;;;6.90;2.30;;;;;;;;;;10565747;27;20408;-77
2023/07/21 21:51:28;;;;;;;3.53;2.00;;;;;;;;;;10566140;28;20060;-77
2023/07/21 21:56:32;;;;;;;7.47;2.00;;;;;;;;;;10564897;27;20050;-77
2023/07/21 22:01:35;;;;;;;3.38;2.10;;;;;;;;;;10560079;28;20048;-77
2023/07/21 22:06:37;;;;;;;4.83;2.20;;;;;;;;;;10561877;27;20455;-76
2023/07/21 22:11:41;;;;;;;5.63;2.65;;;;;;;;;;10566108;27;20044;-77
2023/07/21 22:16:44;;;;;;;6.20;2.33;;;;;;;;;;10543254;27;20460;-77
2023/07/21 22:21:47;;;;;;;3.77;2.00;;;;;;;;;;10567635;28;20159;-77
2023/07/21 22:26:51;;;;;;;6.80;2.53;;;;;;;;;;10563539;28;20077;-77
2023/07/21 22:31:54;;;;;;;6.20;2.88;;;;;;;;;;10565403;28;20544;-77
2023/07/21 22:36:57;;;;;;;6.20;2.25;;;;;;;;;;10571613;28;20515;-78
2023/07/21 22:42:04;;;;;;;4.23;2.33;;;;;;;;;;10577622;28;20042;-79
2023/07/21 22:47:08;;;;;;;4.45;2.25;;;;;;;;;;10571175;28;20108;-80
2023/07/21 22:52:13;;;;;;;3.47;2.00;;;;;;;;;;10546172;28;20036;-77
2023/07/21 22:57:17;;;;;;;5.72;2.10;;;;;;;;;;10546170;28;20047;-77
2023/07/21 23:02:23;;;;;;;7.13;2.17;;;;;;;;;;10564006;28;20047;-78
2023/07/21 23:07:25;;;;;;;4.78;2.80;;;;;;;;;;10568679;28;20111;-79
2023/07/21 23:12:30;;;;;;;4.23;2.13;;;;;;;;;;10563477;28;20052;-79
2023/07/21 23:17:35;;;;;;;4.95;2.20;;;;;;;;;;10569561;28;20457;-78
2023/07/21 23:22:37;;;;;;;4.32;1.98;;;;;;;;;;10571467;27;20050;-78
2023/07/21 23:27:41;;;;;;;4.23;2.10;;;;;;;;;;10564574;28;20040;-77
2023/07/21 23:32:45;;;;;;;4.90;2.10;;;;;;;;;;10564296;28;20056;-75
2023/07/21 23:37:47;;;;;;;5.60;2.08;;;;;;;;;;10566528;28;20460;-78
2023/07/21 23:42:54;;;;;;;4.10;1.80;;;;;;;;;;10557358;28;20047;-77
2023/07/21 23:47:57;;;;;;;3.85;2.00;;;;;;;;;;10558947;28;20032;-77
2023/07/21 23:52:59;;;;;;;4.97;2.30;;;;;;;;;;10559936;28;20123;-77
2023/07/21 23:58:04;;;;;;;3.15;1.90;;;;;;;;;;10552900;28;20468;-77
